Flight Track Log - Related Links

Times and Time Zones

All times are in EDT time to prevent confusion due to time zone crossing. See the RPA3275 flight status page for this flight to view local times or setup timezone preferences in your user account.

Time Position Orientation Groundspeed Altitude Reporting Facility
EDT Latitude Longitude Course Direction KTS MPH feet Rate Location/Type
Sat 07:01:48 AM 42.7653 -73.8061 220° Southwest 155 178 1,100  Level Boston Center
Sat 07:02:54 AM 42.7894 -73.8689 298° West 227 261 3,300 2,829 Climbing Boston Center
Sat 07:04:00 AM 42.7333 -74.1427 270° West  Level FlightAware Approximate
Sat 07:04:08 AM 42.7797 -73.9706 263° West 260 299 7,700  Level Boston Center
Sat 07:05:00 AM 42.7333 -74.2570 270° West  Level FlightAware Approximate
Sat 07:05:08 AM 42.7597 -74.0606 253° West 260 299 10,800  Level Boston Center
Sat 07:06:00 AM 42.6992 -74.3530 220° Southwest  Level FlightAware Approximate
Sat 07:06:08 AM 42.6981 -74.1550 228° Southwest 289 333 13,400  Level Boston Center
Sat 07:07:08 AM 42.6383 -74.2464 228° Southwest 339 390 15,800 2,500 Climbing Boston Center
Sat 07:08:08 AM 42.5633 -74.3569 227° Southwest 364 419 18,400 1,600 Climbing Boston Center
Sat 07:09:08 AM 42.5039 -74.4311 223° Southwest 370 426 19,000 300 Climbing Boston Center
Sat 07:10:08 AM 42.4119 -74.5547 225° Southwest 381 438 19,000  Level Boston Center
Sat 07:11:08 AM 42.3414 -74.6422 223° Southwest 381 438 19,000  Level Boston Center
Sat 07:12:08 AM 42.2600 -74.7572 226° Southwest 387 445 19,000  Level Boston Center
Sat 07:13:52 AM 42.1383 -74.9128 223° Southwest 376 433 19,000  Level New York Center
Sat 07:14:51 AM 42.0511 -75.0247 224° Southwest 391 450 19,000  Level New York Center
Sat 07:15:51 AM 41.9792 -75.1147 223° Southwest 396 456 19,000  Level New York Center
Sat 07:16:51 AM 41.8908 -75.1953 214° Southwest 396 456 19,000  Level New York Center
Sat 07:17:53 AM 41.7856 -75.2803 211° Southwest 406 467 19,000 -738 Level New York Center
Sat 07:18:53 AM 41.6933 -75.3544 211° Southwest 401 461 17,500 -1,780 Descending New York Center
Sat 07:19:51 AM 41.6031 -75.4286 212° Southwest 396 456 15,500 -2,017 Descending New York Center
Sat 07:20:52 AM 41.5256 -75.4897 211° Southwest 376 433 13,500 -1,736 Descending New York Center
Sat 07:21:52 AM 41.4394 -75.5583 211° Southwest 371 427 12,000 -756 Descending New York Center
Sat 07:22:51 AM 41.3447 -75.6347 211° Southwest 366 421 12,000 -50 Level New York Center
Sat 07:23:52 AM 41.2531 -75.6886 204° Southwest 366 421 11,900 -600 Descending New York Center
Sat 07:24:51 AM 41.1592 -75.6903 181° South 344 396 10,800 -958 Descending New York Center
Sat 07:25:51 AM 41.0786 -75.6761 172° South 326 375 10,000 -400 Descending New York Center
Sat 07:26:51 AM 40.9819 -75.6417 165° South 331 381 10,000  Level New York Center
Sat 07:27:53 AM 40.9042 -75.6086 162° South 331 381 10,000  Level New York Center
Sat 07:28:52 AM 40.8200 -75.5778 165° South 331 381 10,000  Level New York Center
Sat 07:29:51 AM 40.7236 -75.5383 163° South 331 381 10,000  Level New York Center
Sat 07:30:51 AM 40.6375 -75.5050 164° South 331 381 10,000  Level New York Center
Sat 07:31:52 AM 40.5636 -75.4753 163° South 315 362 10,000  Level New York Center
Sat 07:32:52 AM 40.4856 -75.4453 164° South 302 348 10,000 -303 Level New York Center
Sat 07:33:51 AM 40.4019 -75.4014 158° South 297 342 9,400 -1,041 Descending New York Center
Sat 07:34:53 AM 40.3244 -75.3608 158° South 302 348 7,900 -1,279 Descending New York Center
Sat 07:35:53 AM 40.2611 -75.3786 192° South 270 311 6,800 -908 Descending New York Center
Sat 07:36:52 AM 40.1864 -75.4278 207° Southwest 270 311 6,100 -403 Descending New York Center
Sat 07:37:52 AM 40.1342 -75.4786 217° Southwest 275 316 6,000 -50 Descending New York Center
Sat 07:38:53 AM 40.0694 -75.5367 214° Southwest 270 311 6,000  Level New York Center
Sat 07:39:53 AM 40.0175 -75.5847 215° Southwest 265 305 6,000  Level New York Center
Sat 07:40:53 AM 39.9525 -75.5936 186° South 224 258 6,000  Level New York Center
Sat 07:41:51 AM 39.9064 -75.5958 182° South 195 224 6,000 -706 Level New York Center
Sat 07:42:52 AM 39.8522 -75.5975 181° South 185 213 4,600 -1,190 Descending New York Center
Sat 07:43:52 AM 39.8333 -75.5475 116° Southeast 150 173 3,600 -797 Descending New York Center
Sat 07:45:00 AM 39.8167 -75.4667 105° East 185 213 2,900 -618 Descending Philadelphia TRACON

Login

Don't have an account? Register now (free) for customized features, flight alerts, and more!